createdAt,value
2018-08-20T00:00:29.253Z,25.30
2018-08-20T00:01:01.355Z,25.30
2018-08-20T00:01:33.636Z,25.30
2018-08-20T00:02:05.808Z,25.30
2018-08-20T00:02:37.965Z,25.40
2018-08-20T00:03:10.282Z,25.30
2018-08-20T00:03:42.468Z,25.30
2018-08-20T00:04:14.890Z,25.30
2018-08-20T00:04:46.980Z,25.30
2018-08-20T00:05:19.336Z,25.30
2018-08-20T00:05:51.744Z,25.30
2018-08-20T00:06:24.105Z,25.20
2018-08-20T00:06:56.553Z,25.20
2018-08-20T00:07:28.485Z,25.20
2018-08-20T00:08:00.766Z,25.30
2018-08-20T00:08:32.862Z,25.20
2018-08-20T00:09:04.701Z,25.30
2018-08-20T00:09:36.998Z,25.30
2018-08-20T00:10:09.295Z,25.30
2018-08-20T00:10:41.357Z,25.30
2018-08-20T00:11:13.666Z,25.30
2018-08-20T00:11:45.809Z,25.30
2018-08-20T00:12:17.982Z,25.30
2018-08-20T00:12:50.099Z,25.40
2018-08-20T00:13:22.167Z,25.30
2018-08-20T00:13:54.459Z,25.40
2018-08-20T00:14:26.503Z,25.40
2018-08-20T00:14:58.602Z,25.30
2018-08-20T00:15:30.713Z,25.30
2018-08-20T00:16:02.769Z,25.40
2018-08-20T00:16:34.824Z,25.30
2018-08-20T00:17:06.929Z,25.30
2018-08-20T00:17:39.031Z,25.30
2018-08-20T00:18:11.011Z,25.30
2018-08-20T00:18:43.066Z,25.30
2018-08-20T00:19:15.402Z,25.30
2018-08-20T00:19:47.624Z,25.30
2018-08-20T00:20:19.814Z,25.30
2018-08-20T00:20:51.971Z,25.20
2018-08-20T00:21:24.150Z,25.20
2018-08-20T00:21:56.114Z,25.20
2018-08-20T00:22:28.347Z,25.20
2018-08-20T00:23:00.444Z,25.20
2018-08-20T00:23:32.695Z,25.10
2018-08-20T00:24:04.858Z,25.10
2018-08-20T00:24:36.955Z,25.10
2018-08-20T00:25:09.053Z,25.10
2018-08-20T00:25:41.312Z,25.00
2018-08-20T00:26:13.185Z,25.00
2018-08-20T00:26:45.301Z,25.00
2018-08-20T00:27:17.428Z,24.90
2018-08-20T00:27:49.545Z,24.90
2018-08-20T00:28:21.808Z,24.90
2018-08-20T00:28:54.163Z,24.80
2018-08-20T00:29:26.226Z,24.80
2018-08-20T00:29:58.536Z,24.80
2018-08-20T00:30:30.566Z,24.80
2018-08-20T00:31:03.165Z,24.80
2018-08-20T00:31:35.311Z,24.80
2018-08-20T00:32:07.463Z,24.80
2018-08-20T00:32:39.589Z,24.80
2018-08-20T00:33:11.809Z,24.80
2018-08-20T00:33:44.183Z,24.70
2018-08-20T00:34:16.254Z,24.60
2018-08-20T00:34:48.634Z,24.70
2018-08-20T00:35:21.535Z,24.70
2018-08-20T00:35:53.807Z,24.60
2018-08-20T00:36:25.858Z,24.60
2018-08-20T00:36:58.342Z,24.60
2018-08-20T00:37:30.454Z,24.60
2018-08-20T00:38:02.385Z,24.60
2018-08-20T00:38:34.494Z,24.60
2018-08-20T00:39:06.512Z,24.60
2018-08-20T00:39:38.671Z,24.60
2018-08-20T00:40:10.823Z,24.60
2018-08-20T00:40:42.807Z,24.70
2018-08-20T00:41:14.952Z,24.70
2018-08-20T00:41:46.974Z,24.60
2018-08-20T00:42:19.015Z,24.60
2018-08-20T00:42:51.444Z,24.70
2018-08-20T00:43:23.683Z,24.70
2018-08-20T00:43:55.588Z,24.70
2018-08-20T00:44:27.664Z,24.70
2018-08-20T00:44:59.665Z,24.70
2018-08-20T00:45:31.868Z,24.60
2018-08-20T00:46:04.135Z,24.60
2018-08-20T00:46:36.471Z,24.60
2018-08-20T00:47:08.629Z,24.60
2018-08-20T00:47:40.984Z,24.60
2018-08-20T00:48:13.184Z,24.60
2018-08-20T00:48:45.591Z,24.60
2018-08-20T00:49:17.718Z,24.60
2018-08-20T00:49:50.009Z,24.60
2018-08-20T00:50:22.111Z,24.60
2018-08-20T00:50:54.310Z,24.60
2018-08-20T00:51:26.309Z,24.60
2018-08-20T00:51:58.818Z,24.50
2018-08-20T00:52:31.017Z,24.60
2018-08-20T00:53:03.269Z,24.50
2018-08-20T00:53:35.615Z,24.60
2018-08-20T00:54:07.645Z,24.50
2018-08-20T00:54:39.867Z,24.50
2018-08-20T00:55:12.113Z,24.50
2018-08-20T00:55:44.286Z,24.50
2018-08-20T00:56:16.200Z,24.50
2018-08-20T00:56:48.239Z,24.60
2018-08-20T00:57:20.340Z,24.50
2018-08-20T00:57:52.489Z,24.60
2018-08-20T00:58:24.476Z,24.50
2018-08-20T00:58:56.443Z,24.50
2018-08-20T00:59:28.478Z,24.40
2018-08-20T01:00:00.759Z,24.40
2018-08-20T01:00:32.905Z,24.40
2018-08-20T01:01:04.905Z,24.50
2018-08-20T01:01:37.256Z,24.50
2018-08-20T01:02:09.204Z,24.50
2018-08-20T01:02:41.090Z,24.50
2018-08-20T01:03:12.926Z,24.40
2018-08-20T01:03:44.964Z,24.50
2018-08-20T01:04:17.004Z,24.50
2018-08-20T01:04:48.959Z,24.50
2018-08-20T01:05:21.165Z,24.60
2018-08-20T01:05:53.129Z,24.60
2018-08-20T01:06:25.076Z,24.60
2018-08-20T01:06:57.485Z,24.60
2018-08-20T01:07:29.507Z,24.70
2018-08-20T01:08:01.578Z,24.60
2018-08-20T01:08:33.775Z,24.70
2018-08-20T01:09:05.633Z,24.60
2018-08-20T01:09:37.863Z,24.60
2018-08-20T01:10:10.106Z,24.50
2018-08-20T01:10:42.293Z,24.50
2018-08-20T01:11:14.821Z,24.60
2018-08-20T01:11:47.114Z,24.50
2018-08-20T01:12:19.439Z,24.60
2018-08-20T01:12:51.791Z,24.60
2018-08-20T01:13:23.732Z,24.60
2018-08-20T01:13:55.787Z,24.70
2018-08-20T01:14:27.651Z,24.70
2018-08-20T01:14:59.774Z,24.70
2018-08-20T01:15:31.848Z,24.80
2018-08-20T01:16:04.201Z,24.80
2018-08-20T01:16:36.195Z,24.70
2018-08-20T01:17:08.436Z,24.70
2018-08-20T01:17:40.498Z,24.80
2018-08-20T01:18:12.505Z,24.80
2018-08-20T01:18:44.622Z,24.80
2018-08-20T01:19:16.837Z,24.80
2018-08-20T01:19:49.150Z,24.80
2018-08-20T01:20:21.633Z,24.80
2018-08-20T01:20:53.570Z,24.80
2018-08-20T01:21:25.882Z,24.80
2018-08-20T01:21:57.989Z,24.80
2018-08-20T01:22:30.248Z,24.80
2018-08-20T01:23:02.141Z,24.80
2018-08-20T01:23:34.610Z,24.70
2018-08-20T01:24:07.285Z,24.70
2018-08-20T01:24:40.197Z,24.70
2018-08-20T01:25:12.494Z,24.70
2018-08-20T01:25:44.778Z,24.70
2018-08-20T01:26:17.288Z,24.70
2018-08-20T01:26:49.963Z,24.70
2018-08-20T01:27:23.475Z,24.80
2018-08-20T01:27:56.437Z,24.80
2018-08-20T01:28:28.759Z,24.80
2018-08-20T01:29:01.337Z,24.80
2018-08-20T01:29:33.579Z,24.80
2018-08-20T01:30:05.932Z,24.80
2018-08-20T01:30:38.701Z,24.90
2018-08-20T01:31:11.090Z,24.90
2018-08-20T01:31:43.590Z,24.90
2018-08-20T01:32:15.644Z,24.80
2018-08-20T01:32:47.993Z,24.80
2018-08-20T01:33:20.219Z,24.80
2018-08-20T01:33:52.534Z,24.80
2018-08-20T01:34:24.714Z,24.80
2018-08-20T01:34:57.060Z,24.80
2018-08-20T01:35:29.552Z,24.80
2018-08-20T01:36:03.165Z,24.80
2018-08-20T01:36:35.837Z,24.80
2018-08-20T01:37:08.195Z,24.80
2018-08-20T01:37:40.596Z,24.80
2018-08-20T01:38:13.939Z,24.80
2018-08-20T01:38:46.585Z,24.80
2018-08-20T01:39:20.331Z,24.80
2018-08-20T01:39:52.802Z,24.80
2018-08-20T01:40:25.955Z,24.80
2018-08-20T01:40:58.662Z,24.80
2018-08-20T01:41:31.148Z,24.90
2018-08-20T01:42:03.821Z,24.90
2018-08-20T01:42:35.710Z,24.90
2018-08-20T01:43:07.651Z,24.80
2018-08-20T01:43:39.711Z,24.90
2018-08-20T01:44:11.569Z,24.80
2018-08-20T01:44:43.384Z,24.90
2018-08-20T01:45:15.168Z,24.90
2018-08-20T01:45:46.979Z,24.80
2018-08-20T01:46:18.799Z,24.90
2018-08-20T01:46:50.794Z,24.80
2018-08-20T01:47:22.827Z,24.90
2018-08-20T01:47:54.616Z,24.90
2018-08-20T01:48:26.438Z,24.90
2018-08-20T01:48:58.393Z,24.90
2018-08-20T01:49:30.336Z,24.90
2018-08-20T01:50:02.124Z,25.00
2018-08-20T01:50:33.932Z,24.90
2018-08-20T01:51:05.730Z,24.90
2018-08-20T01:51:37.705Z,24.90
2018-08-20T01:52:09.642Z,24.90
2018-08-20T01:52:41.603Z,24.90
2018-08-20T01:53:13.553Z,25.00
2018-08-20T01:53:45.397Z,24.90
2018-08-20T01:54:17.213Z,24.90
2018-08-20T01:54:49.175Z,24.90
2018-08-20T01:55:21.244Z,24.90
2018-08-20T01:55:53.057Z,24.90
2018-08-20T01:56:25.268Z,24.90
2018-08-20T01:56:57.079Z,24.80
2018-08-20T01:57:29.054Z,24.80
2018-08-20T01:58:00.841Z,24.80
2018-08-20T01:58:32.651Z,24.80
2018-08-20T01:59:04.498Z,24.80
2018-08-20T01:59:36.328Z,24.80
2018-08-20T02:00:08.359Z,24.80
2018-08-20T02:00:40.192Z,24.80
2018-08-20T02:01:12.051Z,24.80
2018-08-20T02:01:44.246Z,24.80
2018-08-20T02:02:16.077Z,24.90
2018-08-20T02:02:47.919Z,24.90
2018-08-20T02:03:19.758Z,24.80
2018-08-20T02:03:51.629Z,24.80
2018-08-20T02:04:23.449Z,24.80
2018-08-20T02:04:55.259Z,24.80
2018-08-20T02:05:27.279Z,24.90
2018-08-20T02:05:59.222Z,24.80
2018-08-20T02:06:31.138Z,24.80
2018-08-20T02:07:03.011Z,24.80
2018-08-20T02:07:34.970Z,24.80
2018-08-20T02:08:06.863Z,24.90
2018-08-20T02:08:38.718Z,24.80
2018-08-20T02:09:10.706Z,24.80
2018-08-20T02:09:42.482Z,24.80
2018-08-20T02:10:14.309Z,24.80
2018-08-20T02:10:46.233Z,24.90
2018-08-20T02:11:18.115Z,24.80
2018-08-20T02:11:50.228Z,24.80
2018-08-20T02:12:22.111Z,24.90
2018-08-20T02:12:54.172Z,24.90
2018-08-20T02:13:25.995Z,24.90
2018-08-20T02:13:58.011Z,24.90
2018-08-20T02:14:29.892Z,24.90
2018-08-20T02:15:01.657Z,24.90
2018-08-20T02:15:33.498Z,24.80
2018-08-20T02:16:05.301Z,24.80
2018-08-20T02:16:37.127Z,24.80
2018-08-20T02:17:08.897Z,24.70
2018-08-20T02:17:40.729Z,24.70
2018-08-20T02:18:12.697Z,24.70
2018-08-20T02:18:44.496Z,24.70
2018-08-20T02:19:16.297Z,24.60
2018-08-20T02:19:48.251Z,24.60
2018-08-20T02:20:20.246Z,24.70
2018-08-20T02:20:52.216Z,24.70
2018-08-20T02:21:24.080Z,24.70
2018-08-20T02:21:56.059Z,24.70
2018-08-20T02:22:27.822Z,24.60
2018-08-20T02:22:59.666Z,24.50
2018-08-20T02:23:31.507Z,24.40
2018-08-20T02:24:03.401Z,24.40
2018-08-20T02:24:35.187Z,24.40
2018-08-20T02:25:07.132Z,24.40
2018-08-20T02:25:38.956Z,24.40
2018-08-20T02:26:11.134Z,24.30
2018-08-20T02:26:43.048Z,24.30
2018-08-20T02:27:15.002Z,24.20
2018-08-20T02:27:46.947Z,24.20
2018-08-20T02:28:19.034Z,24.20
2018-08-20T02:28:51.125Z,24.10
2018-08-20T02:29:22.956Z,24.00
2018-08-20T02:29:54.805Z,24.00
2018-08-20T02:30:26.739Z,24.00
2018-08-20T02:30:58.657Z,24.10
2018-08-20T02:31:30.573Z,24.10
2018-08-20T02:32:02.366Z,24.10
2018-08-20T02:32:34.254Z,24.10
2018-08-20T02:33:06.050Z,24.10
2018-08-20T02:33:37.956Z,24.10
2018-08-20T02:34:09.937Z,24.10
2018-08-20T02:34:41.968Z,24.10
2018-08-20T02:35:13.916Z,24.20
2018-08-20T02:35:45.765Z,24.20
2018-08-20T02:36:17.660Z,24.30
2018-08-20T02:36:49.465Z,24.40
2018-08-20T02:37:21.284Z,24.30
2018-08-20T02:37:53.124Z,24.40
2018-08-20T02:38:24.945Z,24.40
2018-08-20T02:38:56.844Z,24.50
2018-08-20T02:39:28.695Z,24.50
2018-08-20T02:40:00.646Z,24.50
2018-08-20T02:40:32.535Z,24.60
2018-08-20T02:41:04.305Z,24.60
2018-08-20T02:41:36.276Z,24.60
2018-08-20T02:42:08.176Z,24.60
2018-08-20T02:42:40.027Z,24.50
2018-08-20T02:43:11.796Z,24.40
2018-08-20T02:43:43.623Z,24.40
2018-08-20T02:44:15.444Z,24.40
2018-08-20T02:44:48.136Z,24.40
2018-08-20T02:45:20.245Z,24.40
2018-08-20T02:45:52.304Z,24.40
2018-08-20T02:46:24.223Z,24.30
2018-08-20T02:46:56.073Z,24.30
2018-08-20T02:47:27.867Z,24.40
2018-08-20T02:47:59.659Z,24.40
2018-08-20T02:48:31.484Z,24.40
2018-08-20T02:49:03.563Z,24.50
2018-08-20T02:49:35.394Z,24.50
2018-08-20T02:50:07.343Z,24.50
2018-08-20T02:50:39.153Z,24.60
2018-08-20T02:51:11.012Z,24.50
2018-08-20T02:51:43.062Z,24.40
2018-08-20T02:52:14.873Z,24.40
2018-08-20T02:52:46.674Z,24.40
2018-08-20T02:53:18.554Z,24.40
2018-08-20T02:53:50.492Z,24.30
2018-08-20T02:54:22.262Z,24.30
2018-08-20T02:54:54.091Z,24.30
2018-08-20T02:55:25.927Z,24.30
2018-08-20T02:55:58.072Z,24.40
2018-08-20T02:56:29.831Z,24.40
2018-08-20T02:57:01.639Z,24.40
2018-08-20T02:57:33.405Z,24.50
2018-08-20T02:58:05.182Z,24.50
2018-08-20T02:58:36.956Z,24.50
2018-08-20T02:59:08.977Z,24.50
2018-08-20T02:59:40.792Z,24.50
2018-08-20T03:00:12.559Z,24.40
2018-08-20T03:00:44.335Z,24.30
2018-08-20T03:01:16.136Z,24.30
2018-08-20T03:01:47.926Z,24.30
2018-08-20T03:02:19.832Z,24.30
2018-08-20T03:02:51.685Z,24.20
2018-08-20T03:03:23.692Z,24.20
2018-08-20T03:03:55.480Z,24.20
2018-08-20T03:04:27.442Z,24.10
2018-08-20T03:04:59.424Z,24.10
2018-08-20T03:05:31.312Z,24.20
2018-08-20T03:06:03.131Z,24.20
2018-08-20T03:06:35.054Z,24.10
2018-08-20T03:07:06.884Z,24.10
2018-08-20T03:07:38.649Z,24.20
2018-08-20T03:08:10.472Z,24.20
2018-08-20T03:08:42.389Z,24.20
2018-08-20T03:09:14.188Z,24.20
2018-08-20T03:09:46.291Z,24.20
2018-08-20T03:10:18.129Z,24.20
2018-08-20T03:10:49.924Z,24.30
2018-08-20T03:11:21.819Z,24.30
2018-08-20T03:11:53.751Z,24.20
2018-08-20T03:12:25.802Z,24.20
2018-08-20T03:12:57.651Z,24.30
2018-08-20T03:13:29.550Z,24.30
2018-08-20T03:14:01.497Z,24.40
2018-08-20T03:14:33.317Z,24.40
2018-08-20T03:15:05.142Z,24.40
2018-08-20T03:15:36.953Z,24.50
2018-08-20T03:16:08.828Z,24.50
2018-08-20T03:16:40.633Z,24.50
2018-08-20T03:17:12.410Z,24.50
2018-08-20T03:17:44.294Z,24.60
2018-08-20T03:18:16.165Z,24.50
2018-08-20T03:18:47.976Z,24.50
2018-08-20T03:19:19.836Z,24.50
2018-08-20T03:19:51.656Z,24.50
2018-08-20T03:20:23.454Z,24.50
2018-08-20T03:20:55.264Z,24.50
2018-08-20T03:21:27.346Z,24.50
2018-08-20T03:21:59.168Z,24.50
2018-08-20T03:22:31.029Z,24.50
2018-08-20T03:23:02.954Z,24.50
2018-08-20T03:23:34.880Z,24.50
2018-08-20T03:24:06.738Z,24.50
2018-08-20T03:24:38.617Z,24.50
2018-08-20T03:25:10.439Z,24.50
2018-08-20T03:25:42.225Z,24.50
2018-08-20T03:26:14.466Z,24.40
2018-08-20T03:26:46.251Z,24.40
2018-08-20T03:27:18.046Z,24.40
2018-08-20T03:27:49.867Z,24.40
2018-08-20T03:28:21.690Z,24.40
2018-08-20T03:28:53.558Z,24.40
2018-08-20T03:29:25.455Z,24.40
2018-08-20T03:29:57.304Z,24.40
2018-08-20T03:30:29.187Z,24.40
2018-08-20T03:31:00.959Z,24.40
2018-08-20T03:31:32.878Z,24.40
2018-08-20T03:32:04.669Z,24.40
2018-08-20T03:32:36.481Z,24.40
2018-08-20T03:33:08.367Z,24.40
2018-08-20T03:33:40.217Z,24.40
2018-08-20T03:34:12.168Z,24.40
2018-08-20T03:34:44.018Z,24.50
2018-08-20T03:35:15.810Z,24.40
2018-08-20T03:35:47.573Z,24.40
2018-08-20T03:36:19.929Z,24.40
2018-08-20T03:36:51.736Z,24.40
2018-08-20T03:37:23.613Z,24.40
2018-08-20T03:37:55.607Z,24.40
2018-08-20T03:38:27.389Z,24.40
2018-08-20T03:38:59.141Z,24.40
2018-08-20T03:39:31.058Z,24.40
2018-08-20T03:40:03.129Z,24.50
2018-08-20T03:40:34.988Z,24.50
2018-08-20T03:41:07.001Z,24.50
2018-08-20T03:41:38.810Z,24.50
2018-08-20T03:42:10.731Z,24.50
2018-08-20T03:42:42.560Z,24.50
2018-08-20T03:43:14.500Z,24.50
2018-08-20T03:43:46.432Z,24.50
2018-08-20T03:44:18.389Z,24.50
2018-08-20T03:44:50.200Z,24.50
2018-08-20T03:45:22.138Z,24.40
2018-08-20T03:45:54.109Z,24.30
2018-08-20T03:46:25.973Z,24.30
2018-08-20T03:46:57.819Z,24.30
2018-08-20T03:47:29.720Z,24.30
2018-08-20T03:48:01.570Z,24.30
2018-08-20T03:48:33.508Z,24.40
2018-08-20T03:49:05.374Z,24.40
2018-08-20T03:49:37.230Z,24.40
2018-08-20T03:50:09.052Z,24.40
2018-08-20T03:50:40.910Z,24.40
2018-08-20T03:51:12.768Z,24.50
2018-08-20T03:51:44.573Z,24.50
2018-08-20T03:52:16.454Z,24.50
2018-08-20T03:52:48.313Z,24.50
2018-08-20T03:53:20.200Z,24.50
2018-08-20T03:53:52.090Z,24.50
2018-08-20T03:54:23.932Z,24.50
2018-08-20T03:54:55.784Z,24.50
2018-08-20T03:55:27.610Z,24.50
2018-08-20T03:55:59.442Z,24.50
2018-08-20T03:56:31.306Z,24.50
2018-08-20T03:57:03.307Z,24.50
2018-08-20T03:57:35.080Z,24.60
2018-08-20T03:58:06.858Z,24.60
2018-08-20T03:58:38.630Z,24.60
2018-08-20T03:59:10.440Z,24.60
2018-08-20T03:59:42.331Z,24.60
2018-08-20T04:00:14.151Z,24.60
2018-08-20T04:00:45.912Z,24.70
2018-08-20T04:01:17.710Z,24.70
2018-08-20T04:01:49.526Z,24.70
2018-08-20T04:02:21.342Z,24.70
2018-08-20T04:02:53.109Z,24.70
2018-08-20T04:03:24.940Z,24.70
2018-08-20T04:03:56.832Z,24.70
2018-08-20T04:04:29.078Z,24.70
2018-08-20T04:05:01.006Z,24.70
2018-08-20T04:05:32.901Z,24.70
2018-08-20T04:06:04.776Z,24.70
2018-08-20T04:06:36.561Z,24.70
2018-08-20T04:07:08.412Z,24.70
2018-08-20T04:07:40.212Z,24.70
2018-08-20T04:08:12.265Z,24.70
2018-08-20T04:08:44.032Z,24.70
2018-08-20T04:09:15.896Z,24.70
2018-08-20T04:09:47.711Z,24.70
2018-08-20T04:10:19.583Z,24.70
2018-08-20T04:10:51.491Z,24.70
2018-08-20T04:11:23.317Z,24.70
2018-08-20T04:11:55.178Z,24.70
2018-08-20T04:12:27.083Z,24.70
2018-08-20T04:12:58.956Z,24.70
2018-08-20T04:13:30.822Z,24.70
2018-08-20T04:14:02.597Z,24.70
2018-08-20T04:14:34.414Z,24.80
2018-08-20T04:15:06.403Z,24.80
2018-08-20T04:15:38.204Z,24.80
2018-08-20T04:16:09.978Z,24.80
2018-08-20T04:16:41.853Z,24.80
2018-08-20T04:17:13.675Z,24.80
2018-08-20T04:17:45.457Z,24.90
2018-08-20T04:18:17.330Z,24.80
2018-08-20T04:18:49.129Z,24.80
2018-08-20T04:19:20.915Z,24.90
2018-08-20T04:19:52.693Z,24.90
2018-08-20T04:20:24.513Z,24.90
2018-08-20T04:20:56.423Z,24.80
2018-08-20T04:21:28.242Z,24.90
2018-08-20T04:22:00.033Z,24.90
2018-08-20T04:22:31.791Z,24.90
2018-08-20T04:23:03.619Z,24.90
2018-08-20T04:23:35.409Z,24.90
2018-08-20T04:24:07.205Z,24.90
2018-08-20T04:24:39.012Z,24.90
2018-08-20T04:25:10.796Z,24.90
2018-08-20T04:25:42.596Z,24.90
2018-08-20T04:26:14.374Z,24.90
2018-08-20T04:26:46.224Z,24.90
2018-08-20T04:27:18.091Z,24.90
2018-08-20T04:27:49.882Z,24.90
2018-08-20T04:28:21.676Z,24.90
2018-08-20T04:28:53.532Z,24.90
2018-08-20T04:29:25.302Z,24.90
2018-08-20T04:29:57.156Z,24.90
2018-08-20T04:30:28.960Z,24.90
2018-08-20T04:31:01.006Z,24.90
2018-08-20T04:31:32.860Z,24.90
2018-08-20T04:32:04.785Z,24.90
2018-08-20T04:32:36.536Z,24.90
2018-08-20T04:33:08.352Z,24.90
2018-08-20T04:33:40.200Z,24.80
2018-08-20T04:34:12.072Z,24.80
2018-08-20T04:34:43.955Z,24.90
2018-08-20T04:35:15.776Z,24.90
2018-08-20T04:35:47.755Z,24.90
2018-08-20T04:36:19.621Z,24.90
2018-08-20T04:36:51.636Z,24.90
2018-08-20T04:37:23.448Z,24.90
2018-08-20T04:37:55.371Z,24.90
2018-08-20T04:38:27.188Z,24.90
2018-08-20T04:38:59.034Z,24.90
2018-08-20T04:39:30.878Z,24.90
2018-08-20T04:40:02.686Z,24.90
2018-08-20T04:40:34.487Z,24.90
2018-08-20T04:41:06.260Z,24.90
2018-08-20T04:41:38.095Z,24.90
2018-08-20T04:42:10.010Z,24.90
2018-08-20T04:42:41.787Z,24.90
2018-08-20T04:43:13.627Z,24.90
2018-08-20T04:43:45.450Z,24.90
2018-08-20T04:44:17.277Z,24.90
2018-08-20T04:44:49.043Z,24.90
2018-08-20T04:45:20.820Z,24.90
2018-08-20T04:45:52.645Z,24.90
2018-08-20T04:46:24.563Z,25.00
2018-08-20T04:46:56.346Z,24.90
2018-08-20T04:47:28.207Z,24.90
2018-08-20T04:48:00.217Z,24.90
2018-08-20T04:48:32.016Z,24.90
2018-08-20T04:49:03.817Z,24.90
2018-08-20T04:49:35.588Z,24.90
2018-08-20T04:50:07.526Z,24.90
2018-08-20T04:50:39.282Z,24.90
2018-08-20T04:51:11.216Z,24.90
2018-08-20T04:51:43.138Z,24.90
2018-08-20T04:52:14.994Z,24.90
2018-08-20T04:52:46.803Z,24.90
2018-08-20T04:53:18.587Z,25.00
2018-08-20T04:53:50.389Z,24.90
2018-08-20T04:54:22.205Z,24.90
2018-08-20T04:54:54.028Z,24.90
2018-08-20T04:55:25.894Z,24.90
2018-08-20T04:55:57.625Z,24.90
2018-08-20T04:56:29.447Z,24.90
2018-08-20T04:57:01.242Z,24.90
2018-08-20T04:57:33.108Z,25.00
2018-08-20T04:58:04.878Z,25.00
2018-08-20T04:58:36.837Z,24.90
2018-08-20T04:59:08.708Z,24.90
2018-08-20T04:59:40.679Z,24.90
2018-08-20T05:00:12.587Z,24.90
2018-08-20T05:00:44.388Z,24.90
2018-08-20T05:01:16.207Z,24.90
2018-08-20T05:01:48.108Z,24.90
2018-08-20T05:02:19.960Z,24.90
2018-08-20T05:02:51.835Z,24.90
2018-08-20T05:03:23.618Z,24.90
2018-08-20T05:03:55.571Z,24.90
2018-08-20T05:04:27.410Z,24.90
2018-08-20T05:04:59.199Z,24.90
2018-08-20T05:05:31.107Z,24.90
2018-08-20T05:06:03.088Z,24.90
2018-08-20T05:06:34.879Z,24.90
2018-08-20T05:07:06.684Z,24.90
2018-08-20T05:07:38.498Z,24.90
2018-08-20T05:08:10.325Z,25.00
2018-08-20T05:08:42.188Z,25.00
2018-08-20T05:09:14.084Z,25.00
2018-08-20T05:09:45.994Z,25.00
2018-08-20T05:10:17.878Z,25.00
2018-08-20T05:10:49.670Z,24.90
2018-08-20T05:11:21.561Z,25.00
2018-08-20T05:11:53.478Z,25.00
2018-08-20T05:12:25.379Z,25.00
2018-08-20T05:12:57.172Z,25.00
2018-08-20T05:13:29.210Z,25.00
2018-08-20T05:14:01.064Z,25.00
2018-08-20T05:14:32.892Z,25.00
2018-08-20T05:15:04.719Z,24.90
2018-08-20T05:15:36.623Z,24.90
2018-08-20T05:16:08.411Z,24.90
2018-08-20T05:16:40.171Z,24.90
2018-08-20T05:17:12.054Z,24.90
2018-08-20T05:17:43.868Z,24.90
2018-08-20T05:18:15.647Z,24.90
2018-08-20T05:18:47.487Z,24.90
2018-08-20T05:19:19.468Z,24.90
2018-08-20T05:19:51.622Z,24.90
2018-08-20T05:20:23.508Z,24.90
2018-08-20T05:20:55.318Z,24.90
2018-08-20T05:21:27.101Z,24.90
2018-08-20T05:21:59.014Z,24.90
2018-08-20T05:22:31.060Z,24.90
2018-08-20T05:23:02.851Z,24.90
2018-08-20T05:23:34.681Z,24.90
2018-08-20T05:24:06.510Z,24.80
2018-08-20T05:24:38.462Z,24.80
2018-08-20T05:25:10.441Z,24.90
2018-08-20T05:25:42.350Z,24.90
2018-08-20T05:26:14.299Z,24.90
2018-08-20T05:26:46.264Z,24.90
2018-08-20T05:27:18.089Z,24.90
2018-08-20T05:27:50.011Z,24.90
2018-08-20T05:28:21.945Z,24.90
2018-08-20T05:28:54.049Z,24.90
2018-08-20T05:29:26.155Z,24.90
2018-08-20T05:29:57.980Z,24.90
2018-08-20T05:30:29.833Z,25.00
2018-08-20T05:31:01.743Z,24.90
2018-08-20T05:31:33.609Z,24.90
2018-08-20T05:32:05.637Z,24.90
2018-08-20T05:32:37.419Z,24.90
2018-08-20T05:33:09.481Z,25.00
2018-08-20T05:33:41.236Z,24.90
2018-08-20T05:34:13.045Z,24.90
2018-08-20T05:34:44.865Z,24.90
2018-08-20T05:35:16.628Z,24.90
2018-08-20T05:35:48.459Z,25.00
2018-08-20T05:36:20.317Z,24.90
2018-08-20T05:36:52.111Z,24.90
2018-08-20T05:37:23.929Z,24.90
2018-08-20T05:37:55.740Z,24.90
2018-08-20T05:38:27.535Z,24.90
2018-08-20T05:38:59.373Z,24.90
2018-08-20T05:39:31.184Z,24.90
2018-08-20T05:40:02.998Z,24.90
2018-08-20T05:40:34.770Z,25.00
2018-08-20T05:41:06.617Z,24.90
2018-08-20T05:41:38.467Z,25.00
2018-08-20T05:42:10.281Z,25.00
2018-08-20T05:42:42.109Z,25.00
2018-08-20T05:43:14.053Z,25.00
2018-08-20T05:43:45.901Z,25.00
2018-08-20T05:44:17.681Z,25.00
2018-08-20T05:44:49.544Z,25.00
2018-08-20T05:45:21.351Z,25.00
2018-08-20T05:45:53.154Z,25.00
2018-08-20T05:46:24.946Z,25.00
2018-08-20T05:46:56.778Z,25.00
2018-08-20T05:47:28.607Z,25.00
2018-08-20T05:48:00.587Z,25.00
2018-08-20T05:48:32.418Z,25.00
2018-08-20T05:49:04.484Z,25.00
2018-08-20T05:49:36.306Z,25.00
2018-08-20T05:50:08.142Z,25.00
2018-08-20T05:50:39.971Z,25.00
2018-08-20T05:51:11.915Z,24.90
2018-08-20T05:51:43.892Z,24.90
2018-08-20T05:52:15.981Z,25.00
2018-08-20T05:52:47.954Z,25.00
2018-08-20T05:53:19.836Z,24.90
2018-08-20T05:53:51.677Z,24.90
2018-08-20T05:54:23.540Z,24.90
2018-08-20T05:54:55.394Z,24.90
2018-08-20T05:55:27.227Z,24.90
2018-08-20T05:55:58.970Z,24.90
2018-08-20T05:56:30.840Z,24.90
2018-08-20T05:57:02.641Z,24.90
2018-08-20T05:57:34.745Z,24.90
2018-08-20T05:58:06.689Z,24.90
2018-08-20T05:58:38.515Z,24.90
2018-08-20T05:59:10.375Z,24.90
2018-08-20T05:59:42.285Z,24.90
2018-08-20T06:00:14.112Z,24.90
2018-08-20T06:00:45.875Z,24.90
2018-08-20T06:01:17.731Z,24.90
2018-08-20T06:01:49.638Z,25.00
2018-08-20T06:02:21.489Z,25.00
2018-08-20T06:02:53.308Z,25.00
2018-08-20T06:03:25.145Z,25.00
2018-08-20T06:03:57.064Z,25.00
2018-08-20T06:04:28.953Z,24.90
2018-08-20T06:05:00.749Z,24.90
2018-08-20T06:05:32.555Z,24.90
2018-08-20T06:06:04.369Z,24.90
2018-08-20T06:06:36.241Z,24.90
2018-08-20T06:07:08.137Z,24.90
2018-08-20T06:07:39.970Z,24.90
2018-08-20T06:08:11.800Z,24.90
2018-08-20T06:08:43.613Z,25.00
2018-08-20T06:09:15.445Z,25.00
2018-08-20T06:09:47.206Z,25.00
2018-08-20T06:10:19.013Z,25.00
2018-08-20T06:10:51.108Z,25.00
2018-08-20T06:11:22.932Z,25.00
2018-08-20T06:11:54.701Z,25.00
2018-08-20T06:12:26.650Z,25.00
2018-08-20T06:12:58.623Z,25.00
2018-08-20T06:13:30.413Z,25.00
2018-08-20T06:14:02.660Z,25.00
2018-08-20T06:14:34.743Z,24.90
2018-08-20T06:15:06.839Z,25.00
2018-08-20T06:15:38.734Z,25.00
2018-08-20T06:16:10.547Z,25.00
2018-08-20T06:16:42.412Z,25.00
2018-08-20T06:17:14.307Z,25.00
2018-08-20T06:17:46.108Z,25.00
2018-08-20T06:18:17.933Z,25.00
2018-08-20T06:18:49.735Z,25.00
2018-08-20T06:19:21.511Z,25.00
2018-08-20T06:19:53.331Z,25.00
2018-08-20T06:20:25.200Z,25.00
2018-08-20T06:20:57.022Z,25.00
2018-08-20T06:21:28.818Z,25.00
2018-08-20T06:22:00.606Z,25.00
2018-08-20T06:22:32.467Z,25.00
2018-08-20T06:23:04.383Z,25.00
2018-08-20T06:23:36.200Z,24.90
2018-08-20T06:24:08.073Z,24.90
2018-08-20T06:24:39.880Z,24.90
2018-08-20T06:25:11.715Z,24.90
2018-08-20T06:25:43.573Z,24.90
2018-08-20T06:26:15.339Z,24.90
2018-08-20T06:26:47.158Z,25.00
2018-08-20T06:27:18.924Z,25.00
2018-08-20T06:27:50.916Z,25.00
2018-08-20T06:28:22.870Z,25.00
2018-08-20T06:28:54.674Z,25.00
2018-08-20T06:29:26.535Z,25.00
2018-08-20T06:29:58.423Z,25.00
2018-08-20T06:30:30.302Z,25.00
2018-08-20T06:31:02.183Z,25.00
2018-08-20T06:31:34.014Z,25.00
2018-08-20T06:32:05.895Z,25.10
2018-08-20T06:32:37.719Z,25.10
2018-08-20T06:33:09.602Z,25.10
2018-08-20T06:33:41.474Z,25.10
2018-08-20T06:34:13.323Z,25.10
2018-08-20T06:34:45.166Z,25.10
2018-08-20T06:35:17.027Z,25.10
2018-08-20T06:35:48.966Z,25.10
2018-08-20T06:36:20.712Z,25.10
2018-08-20T06:36:52.646Z,25.10
2018-08-20T06:37:24.535Z,25.10
2018-08-20T06:37:56.473Z,25.10
2018-08-20T06:38:28.308Z,25.10
2018-08-20T06:39:00.303Z,25.20
2018-08-20T06:39:32.133Z,25.10
2018-08-20T06:40:04.052Z,25.10
2018-08-20T06:40:35.933Z,25.10
2018-08-20T06:41:07.731Z,25.10
2018-08-20T06:41:39.777Z,25.10
2018-08-20T06:42:11.624Z,25.10
2018-08-20T06:42:43.478Z,25.10
2018-08-20T06:43:15.269Z,25.10
2018-08-20T06:43:47.144Z,25.10
2018-08-20T06:44:19.204Z,25.10
2018-08-20T06:44:51.260Z,25.10
2018-08-20T06:45:23.162Z,25.10
2018-08-20T06:45:55.421Z,25.10
2018-08-20T06:46:27.214Z,25.10
2018-08-20T06:46:59.055Z,25.80
2018-08-20T06:47:30.941Z,25.10
2018-08-20T06:48:02.766Z,25.10
2018-08-20T06:48:34.614Z,25.10
2018-08-20T06:49:06.449Z,25.10
2018-08-20T06:49:38.313Z,25.10
2018-08-20T06:50:10.109Z,25.20
2018-08-20T06:50:41.972Z,25.10
2018-08-20T06:51:13.798Z,25.10
2018-08-20T06:51:45.661Z,25.10